sensor_id;sensor_type;location;lat;lon;timestamp;pressure;altitude;pressure_sealevel;temperature;humidity
62072;BME280;48031;48.542;13.232;2023-04-26T00:01:02;97165.50;;;13.51;54.67
62072;BME280;48031;48.542;13.232;2023-04-26T00:05:05;97158.34;;;13.76;54.05
62072;BME280;48031;48.542;13.232;2023-04-26T00:09:08;97160.00;;;13.61;53.36
62072;BME280;48031;48.542;13.232;2023-04-26T00:13:11;97163.06;;;13.45;53.99
62072;BME280;48031;48.542;13.232;2023-04-26T00:17:12;97166.59;;;13.50;53.94
62072;BME280;48031;48.542;13.232;2023-04-26T00:21:14;97160.91;;;13.37;54.15
62072;BME280;48031;48.542;13.232;2023-04-26T00:25:16;97168.22;;;12.50;55.23
62072;BME280;48031;48.542;13.232;2023-04-26T00:29:18;97164.97;;;12.58;55.35
62072;BME280;48031;48.542;13.232;2023-04-26T00:33:20;97164.41;;;12.41;55.60
62072;BME280;48031;48.542;13.232;2023-04-26T00:37:21;97160.78;;;12.10;55.71
62072;BME280;48031;48.542;13.232;2023-04-26T00:41:23;97170.41;;;12.53;54.74
62072;BME280;48031;48.542;13.232;2023-04-26T00:45:25;97170.09;;;12.29;54.16
62072;BME280;48031;48.542;13.232;2023-04-26T00:49:27;97175.22;;;12.21;53.09
62072;BME280;48031;48.542;13.232;2023-04-26T00:53:29;97171.50;;;12.37;52.36
62072;BME280;48031;48.542;13.232;2023-04-26T00:57:31;97167.06;;;12.16;52.41
62072;BME280;48031;48.542;13.232;2023-04-26T01:01:34;97169.63;;;12.68;52.13
62072;BME280;48031;48.542;13.232;2023-04-26T01:05:37;97162.56;;;12.87;51.04
62072;BME280;48031;48.542;13.232;2023-04-26T01:09:39;97163.91;;;13.00;50.13
62072;BME280;48031;48.542;13.232;2023-04-26T01:13:41;97175.59;;;13.00;49.64
62072;BME280;48031;48.542;13.232;2023-04-26T01:17:45;97183.47;;;12.41;51.53
62072;BME280;48031;48.542;13.232;2023-04-26T01:21:48;97175.06;;;12.83;50.55
62072;BME280;48031;48.542;13.232;2023-04-26T01:25:49;97185.63;;;12.49;50.95
62072;BME280;48031;48.542;13.232;2023-04-26T01:29:51;97183.50;;;13.07;50.00
62072;BME280;48031;48.542;13.232;2023-04-26T01:33:53;97179.41;;;13.04;50.21
62072;BME280;48031;48.542;13.232;2023-04-26T01:37:55;97180.81;;;12.97;50.88
62072;BME280;48031;48.542;13.232;2023-04-26T01:41:57;97192.50;;;13.07;50.46
62072;BME280;48031;48.542;13.232;2023-04-26T01:46:05;97188.97;;;13.32;49.45
62072;BME280;48031;48.542;13.232;2023-04-26T01:50:08;97194.69;;;13.36;50.32
62072;BME280;48031;48.542;13.232;2023-04-26T01:54:10;97180.50;;;13.33;50.61
62072;BME280;48031;48.542;13.232;2023-04-26T01:58:12;97185.69;;;13.10;51.49
62072;BME280;48031;48.542;13.232;2023-04-26T02:02:16;97180.78;;;13.32;51.78
62072;BME280;48031;48.542;13.232;2023-04-26T02:06:18;97185.97;;;13.28;51.49
62072;BME280;48031;48.542;13.232;2023-04-26T02:10:20;97189.25;;;13.15;52.04
62072;BME280;48031;48.542;13.232;2023-04-26T02:14:22;97181.91;;;13.16;51.68
62072;BME280;48031;48.542;13.232;2023-04-26T02:18:24;97193.34;;;13.13;51.33
62072;BME280;48031;48.542;13.232;2023-04-26T02:22:26;97190.38;;;13.19;50.93
62072;BME280;48031;48.542;13.232;2023-04-26T02:26:28;97194.16;;;12.98;51.46
62072;BME280;48031;48.542;13.232;2023-04-26T02:30:30;97197.66;;;12.83;52.65
62072;BME280;48031;48.542;13.232;2023-04-26T02:34:32;97183.22;;;12.78;52.69
62072;BME280;48031;48.542;13.232;2023-04-26T02:38:34;97187.31;;;13.01;52.89
62072;BME280;48031;48.542;13.232;2023-04-26T02:42:38;97184.06;;;12.78;52.69
62072;BME280;48031;48.542;13.232;2023-04-26T02:46:40;97178.34;;;12.85;52.62
62072;BME280;48031;48.542;13.232;2023-04-26T02:50:43;97188.66;;;12.58;53.76
62072;BME280;48031;48.542;13.232;2023-04-26T02:54:47;97192.50;;;12.82;53.05
62072;BME280;48031;48.542;13.232;2023-04-26T02:58:49;97192.72;;;12.50;54.23
62072;BME280;48031;48.542;13.232;2023-04-26T03:02:51;97206.06;;;12.46;54.91
62072;BME280;48031;48.542;13.232;2023-04-26T03:06:53;97196.56;;;12.64;53.88
62072;BME280;48031;48.542;13.232;2023-04-26T03:10:55;97191.66;;;12.56;54.24
62072;BME280;48031;48.542;13.232;2023-04-26T03:14:57;97188.16;;;12.81;53.64
62072;BME280;48031;48.542;13.232;2023-04-26T03:19:00;97195.25;;;13.02;53.25
62072;BME280;48031;48.542;13.232;2023-04-26T03:23:02;97182.16;;;12.94;53.47
62072;BME280;48031;48.542;13.232;2023-04-26T03:27:04;97190.88;;;12.86;53.44
62072;BME280;48031;48.542;13.232;2023-04-26T03:31:07;97204.69;;;12.44;54.22
62072;BME280;48031;48.542;13.232;2023-04-26T03:35:09;97209.53;;;12.27;55.13
62072;BME280;48031;48.542;13.232;2023-04-26T03:39:11;97204.69;;;12.39;54.00
62072;BME280;48031;48.542;13.232;2023-04-26T03:43:13;97211.72;;;12.20;54.63
62072;BME280;48031;48.542;13.232;2023-04-26T03:47:15;97214.47;;;12.30;54.41
62072;BME280;48031;48.542;13.232;2023-04-26T03:51:18;97227.75;;;12.26;54.84
62072;BME280;48031;48.542;13.232;2023-04-26T03:55:20;97218.00;;;12.35;54.61
62072;BME280;48031;48.542;13.232;2023-04-26T03:59:22;97225.41;;;12.55;54.23
62072;BME280;48031;48.542;13.232;2023-04-26T04:03:24;97228.34;;;12.33;54.78
62072;BME280;48031;48.542;13.232;2023-04-26T04:07:27;97217.78;;;12.52;53.64
62072;BME280;48031;48.542;13.232;2023-04-26T04:11:29;97226.13;;;12.20;54.79
62072;BME280;48031;48.542;13.232;2023-04-26T04:15:31;97226.22;;;12.50;54.15
62072;BME280;48031;48.542;13.232;2023-04-26T04:19:33;97228.06;;;12.25;55.00
62072;BME280;48031;48.542;13.232;2023-04-26T04:23:35;97230.59;;;12.62;53.98
62072;BME280;48031;48.542;13.232;2023-04-26T04:27:41;97234.69;;;12.59;54.18
62072;BME280;48031;48.542;13.232;2023-04-26T04:31:44;97240.41;;;12.73;53.65
62072;BME280;48031;48.542;13.232;2023-04-26T04:35:47;97248.25;;;12.49;54.35
62072;BME280;48031;48.542;13.232;2023-04-26T04:39:49;97248.00;;;12.50;54.96
62072;BME280;48031;48.542;13.232;2023-04-26T04:43:51;97249.44;;;12.99;53.10
62072;BME280;48031;48.542;13.232;2023-04-26T04:47:54;97264.41;;;12.81;53.73
62072;BME280;48031;48.542;13.232;2023-04-26T04:51:57;97266.81;;;12.62;54.30
62072;BME280;48031;48.542;13.232;2023-04-26T04:55:59;97269.56;;;12.72;54.03
62072;BME280;48031;48.542;13.232;2023-04-26T05:00:02;97261.47;;;13.38;52.67
62072;BME280;48031;48.542;13.232;2023-04-26T05:04:16;97263.66;;;13.21;52.67
62072;BME280;48031;48.542;13.232;2023-04-26T05:08:18;97264.13;;;12.82;53.82
62072;BME280;48031;48.542;13.232;2023-04-26T05:12:20;97271.78;;;13.06;53.00
62072;BME280;48031;48.542;13.232;2023-04-26T05:16:22;97280.22;;;12.94;53.41
62072;BME280;48031;48.542;13.232;2023-04-26T05:20:24;97283.56;;;13.16;53.27
62072;BME280;48031;48.542;13.232;2023-04-26T05:24:28;97285.22;;;13.48;53.07
62072;BME280;48031;48.542;13.232;2023-04-26T05:28:32;97286.56;;;13.40;52.61
62072;BME280;48031;48.542;13.232;2023-04-26T05:32:55;97278.13;;;13.52;52.62
62072;BME280;48031;48.542;13.232;2023-04-26T05:37:27;97256.03;;;13.13;53.57
62072;BME280;48031;48.542;13.232;2023-04-26T05:41:28;97270.22;;;13.35;52.73
62072;BME280;48031;48.542;13.232;2023-04-26T05:45:30;97286.56;;;13.25;52.39
62072;BME280;48031;48.542;13.232;2023-04-26T05:49:34;97300.47;;;13.33;51.74
62072;BME280;48031;48.542;13.232;2023-04-26T05:53:35;97311.88;;;13.15;52.84
62072;BME280;48031;48.542;13.232;2023-04-26T05:57:38;97315.47;;;13.36;52.39
62072;BME280;48031;48.542;13.232;2023-04-26T06:01:40;97319.00;;;13.57;51.80
62072;BME280;48031;48.542;13.232;2023-04-26T06:05:42;97330.44;;;13.39;51.50
62072;BME280;48031;48.542;13.232;2023-04-26T06:09:44;97325.56;;;13.51;52.08
62072;BME280;48031;48.542;13.232;2023-04-26T06:13:46;97323.03;;;13.04;52.33
62072;BME280;48031;48.542;13.232;2023-04-26T06:17:48;97327.47;;;13.70;50.81
62072;BME280;48031;48.542;13.232;2023-04-26T06:21:50;97325.81;;;13.39;50.71
62072;BME280;48031;48.542;13.232;2023-04-26T06:25:55;97335.91;;;13.49;50.91
62072;BME280;48031;48.542;13.232;2023-04-26T06:29:57;97320.63;;;13.83;50.37
62072;BME280;48031;48.542;13.232;2023-04-26T06:34:00;97322.22;;;13.99;49.23
62072;BME280;48031;48.542;13.232;2023-04-26T06:38:02;97324.94;;;14.04;48.91
62072;BME280;48031;48.542;13.232;2023-04-26T06:42:04;97326.06;;;13.93;48.73
62072;BME280;48031;48.542;13.232;2023-04-26T06:46:34;97343.00;;;13.55;48.90
62072;BME280;48031;48.542;13.232;2023-04-26T06:50:38;97351.38;;;13.08;51.14
62072;BME280;48031;48.542;13.232;2023-04-26T06:54:40;97363.19;;;13.64;50.13
62072;BME280;48031;48.542;13.232;2023-04-26T06:59:01;97346.00;;;13.63;49.72
62072;BME280;48031;48.542;13.232;2023-04-26T07:03:03;97340.47;;;14.24;48.60
62072;BME280;48031;48.542;13.232;2023-04-26T07:07:05;97349.81;;;13.72;47.88
62072;BME280;48031;48.542;13.232;2023-04-26T07:11:11;97347.81;;;14.34;46.47
62072;BME280;48031;48.542;13.232;2023-04-26T07:15:14;97351.16;;;13.14;48.24
62072;BME280;48031;48.542;13.232;2023-04-26T07:19:16;97358.13;;;12.90;47.75
62072;BME280;48031;48.542;13.232;2023-04-26T07:23:18;97353.50;;;12.85;48.15
62072;BME280;48031;48.542;13.232;2023-04-26T07:27:20;97351.16;;;13.24;47.00
62072;BME280;48031;48.542;13.232;2023-04-26T07:31:22;97354.97;;;13.33;45.17
62072;BME280;48031;48.542;13.232;2023-04-26T07:35:23;97349.56;;;13.79;45.43
62072;BME280;48031;48.542;13.232;2023-04-26T07:39:25;97345.16;;;14.03;44.64
62072;BME280;48031;48.542;13.232;2023-04-26T07:43:29;97354.72;;;13.91;43.85
62072;BME280;48031;48.542;13.232;2023-04-26T07:47:31;97349.53;;;13.99;42.48
62072;BME280;48031;48.542;13.232;2023-04-26T07:51:34;97348.47;;;14.85;41.35
62072;BME280;48031;48.542;13.232;2023-04-26T07:55:36;97340.09;;;14.66;41.40
62072;BME280;48031;48.542;13.232;2023-04-26T07:59:38;97342.38;;;15.03;40.63
62072;BME280;48031;48.542;13.232;2023-04-26T08:03:40;97344.22;;;14.64;40.17
62072;BME280;48031;48.542;13.232;2023-04-26T08:07:42;97339.88;;;15.07;41.84
62072;BME280;48031;48.542;13.232;2023-04-26T08:11:44;97350.28;;;15.10;40.14
62072;BME280;48031;48.542;13.232;2023-04-26T08:15:47;97351.34;;;15.14;41.09
62072;BME280;48031;48.542;13.232;2023-04-26T08:19:48;97346.13;;;15.17;37.59
62072;BME280;48031;48.542;13.232;2023-04-26T08:23:50;97342.91;;;14.41;38.12
62072;BME280;48031;48.542;13.232;2023-04-26T08:27:53;97347.88;;;15.42;38.74
62072;BME280;48031;48.542;13.232;2023-04-26T08:31:54;97345.59;;;15.10;36.29
62072;BME280;48031;48.542;13.232;2023-04-26T08:35:58;97350.66;;;15.37;36.41
62072;BME280;48031;48.542;13.232;2023-04-26T08:40:02;97354.38;;;14.33;36.70
62072;BME280;48031;48.542;13.232;2023-04-26T08:44:04;97342.69;;;15.40;36.57
62072;BME280;48031;48.542;13.232;2023-04-26T08:48:09;97349.84;;;15.36;36.43
62072;BME280;48031;48.542;13.232;2023-04-26T08:52:14;97346.81;;;14.89;38.84
62072;BME280;48031;48.542;13.232;2023-04-26T08:56:17;97334.56;;;15.30;38.91
62072;BME280;48031;48.542;13.232;2023-04-26T09:00:19;97340.16;;;15.88;37.55
62072;BME280;48031;48.542;13.232;2023-04-26T09:04:22;97342.84;;;15.93;37.55
62072;BME280;48031;48.542;13.232;2023-04-26T09:08:25;97340.94;;;15.60;33.43
62072;BME280;48031;48.542;13.232;2023-04-26T09:12:28;97353.09;;;15.77;36.56
62072;BME280;48031;48.542;13.232;2023-04-26T09:16:36;97351.41;;;16.39;33.94
62072;BME280;48031;48.542;13.232;2023-04-26T09:20:38;97347.41;;;14.81;34.02
62072;BME280;48031;48.542;13.232;2023-04-26T09:24:48;97346.59;;;16.02;34.28
62072;BME280;48031;48.542;13.232;2023-04-26T09:29:18;97340.84;;;16.28;32.74
62072;BME280;48031;48.542;13.232;2023-04-26T09:33:21;97353.44;;;16.05;33.08
62072;BME280;48031;48.542;13.232;2023-04-26T09:37:23;97345.41;;;16.37;32.72
62072;BME280;48031;48.542;13.232;2023-04-26T09:41:41;97340.06;;;16.75;32.06
62072;BME280;48031;48.542;13.232;2023-04-26T09:45:56;97353.16;;;16.30;31.35
62072;BME280;48031;48.542;13.232;2023-04-26T09:49:59;97348.88;;;15.90;31.88
62072;BME280;48031;48.542;13.232;2023-04-26T09:54:01;97342.09;;;16.40;31.36
62072;BME280;48031;48.542;13.232;2023-04-26T09:58:08;97338.19;;;16.94;32.38
62072;BME280;48031;48.542;13.232;2023-04-26T10:06:16;97341.44;;;16.77;31.95
62072;BME280;48031;48.542;13.232;2023-04-26T10:10:18;97330.53;;;18.31;31.52
62072;BME280;48031;48.542;13.232;2023-04-26T10:14:22;97332.06;;;17.77;30.03
62072;BME280;48031;48.542;13.232;2023-04-26T10:18:24;97326.59;;;17.91;29.81
62072;BME280;48031;48.542;13.232;2023-04-26T10:22:32;97335.16;;;17.14;29.40
62072;BME280;48031;48.542;13.232;2023-04-26T10:26:48;97324.50;;;16.70;31.05
62072;BME280;48031;48.542;13.232;2023-04-26T10:30:53;97328.44;;;16.35;31.70
62072;BME280;48031;48.542;13.232;2023-04-26T10:35:14;97327.00;;;16.90;32.06
62072;BME280;48031;48.542;13.232;2023-04-26T10:39:19;97322.41;;;17.23;32.18
62072;BME280;48031;48.542;13.232;2023-04-26T10:43:28;97316.16;;;18.66;31.81
62072;BME280;48031;48.542;13.232;2023-04-26T10:47:32;97315.59;;;18.37;29.83
62072;BME280;48031;48.542;13.232;2023-04-26T10:51:35;97312.19;;;17.99;30.74
62072;BME280;48031;48.542;13.232;2023-04-26T10:55:37;97307.50;;;18.13;29.09
62072;BME280;48031;48.542;13.232;2023-04-26T11:04:17;97301.69;;;20.35;28.96
62072;BME280;48031;48.542;13.232;2023-04-26T11:08:23;97298.78;;;19.29;29.26
62072;BME280;48031;48.542;13.232;2023-04-26T11:12:25;97298.75;;;19.06;29.80
62072;BME280;48031;48.542;13.232;2023-04-26T11:16:27;97304.00;;;18.81;30.29
62072;BME280;48031;48.542;13.232;2023-04-26T11:20:30;97288.53;;;20.32;30.24
62072;BME280;48031;48.542;13.232;2023-04-26T11:24:34;97286.25;;;21.56;26.60
62072;BME280;48031;48.542;13.232;2023-04-26T11:28:42;97281.00;;;21.11;25.15
62072;BME280;48031;48.542;13.232;2023-04-26T11:32:45;97282.81;;;20.68;26.74
62072;BME280;48031;48.542;13.232;2023-04-26T11:36:47;97275.00;;;21.52;25.46
62072;BME280;48031;48.542;13.232;2023-04-26T11:40:55;97262.94;;;23.55;24.99
62072;BME280;48031;48.542;13.232;2023-04-26T11:44:57;97269.75;;;22.11;25.47
62072;BME280;48031;48.542;13.232;2023-04-26T11:49:00;97278.97;;;20.78;24.59
62072;BME280;48031;48.542;13.232;2023-04-26T11:53:04;97279.84;;;21.04;26.73
62072;BME280;48031;48.542;13.232;2023-04-26T11:57:13;97295.72;;;20.11;26.23
62072;BME280;48031;48.542;13.232;2023-04-26T12:01:25;97292.38;;;18.84;27.10
62072;BME280;48031;48.542;13.232;2023-04-26T12:05:28;97305.88;;;16.91;29.11
62072;BME280;48031;48.542;13.232;2023-04-26T12:09:33;97309.47;;;18.40;28.31
62072;BME280;48031;48.542;13.232;2023-04-26T12:13:38;97302.53;;;19.10;27.95
62072;BME280;48031;48.542;13.232;2023-04-26T12:17:40;97298.34;;;19.13;26.31
62072;BME280;48031;48.542;13.232;2023-04-26T12:21:51;97291.84;;;21.08;23.84
62072;BME280;48031;48.542;13.232;2023-04-26T12:25:55;97283.22;;;23.68;21.94
62072;BME280;48031;48.542;13.232;2023-04-26T12:29:57;97280.31;;;22.56;22.84
62072;BME280;48031;48.542;13.232;2023-04-26T12:33:59;97289.13;;;22.03;24.55
62072;BME280;48031;48.542;13.232;2023-04-26T12:38:00;97298.00;;;20.17;25.04
62072;BME280;48031;48.542;13.232;2023-04-26T12:42:02;97287.13;;;21.00;25.37
62072;BME280;48031;48.542;13.232;2023-04-26T12:46:04;97290.22;;;20.98;26.67
62072;BME280;48031;48.542;13.232;2023-04-26T12:50:06;97294.09;;;19.87;26.86
62072;BME280;48031;48.542;13.232;2023-04-26T12:54:08;97300.09;;;19.45;27.34
62072;BME280;48031;48.542;13.232;2023-04-26T12:58:10;97302.16;;;18.35;27.19
62072;BME280;48031;48.542;13.232;2023-04-26T13:02:12;97283.63;;;18.68;27.67
62072;BME280;48031;48.542;13.232;2023-04-26T13:06:14;97283.91;;;22.94;23.02
62072;BME280;48031;48.542;13.232;2023-04-26T13:10:16;97272.25;;;25.22;21.26
62072;BME280;48031;48.542;13.232;2023-04-26T13:14:18;97268.88;;;27.73;19.53
62072;BME280;48031;48.542;13.232;2023-04-26T13:18:20;97261.38;;;28.80;18.91
62072;BME280;48031;48.542;13.232;2023-04-26T13:22:22;97271.03;;;26.31;20.12
62072;BME280;48031;48.542;13.232;2023-04-26T13:26:24;97254.94;;;28.57;18.07
62072;BME280;48031;48.542;13.232;2023-04-26T13:30:28;97264.78;;;26.34;18.63
62072;BME280;48031;48.542;13.232;2023-04-26T13:34:30;97269.16;;;25.52;19.45
62072;BME280;48031;48.542;13.232;2023-04-26T13:38:32;97266.66;;;23.92;21.23
62072;BME280;48031;48.542;13.232;2023-04-26T13:42:34;97264.00;;;23.21;20.19
62072;BME280;48031;48.542;13.232;2023-04-26T13:46:36;97265.44;;;22.77;21.84
62072;BME280;48031;48.542;13.232;2023-04-26T13:50:38;97258.72;;;22.40;23.12
62072;BME280;48031;48.542;13.232;2023-04-26T13:54:40;97274.09;;;22.67;21.13
62072;BME280;48031;48.542;13.232;2023-04-26T13:58:42;97274.69;;;21.71;23.72
62072;BME280;48031;48.542;13.232;2023-04-26T14:02:44;97259.91;;;22.77;21.32
62072;BME280;48031;48.542;13.232;2023-04-26T14:06:46;97233.72;;;25.49;18.74
62072;BME280;48031;48.542;13.232;2023-04-26T14:10:48;97246.00;;;26.94;19.38
62072;BME280;48031;48.542;13.232;2023-04-26T14:14:50;97253.41;;;26.12;19.03
62072;BME280;48031;48.542;13.232;2023-04-26T14:18:52;97254.53;;;26.38;20.15
62072;BME280;48031;48.542;13.232;2023-04-26T14:22:54;97259.03;;;25.19;21.14
62072;BME280;48031;48.542;13.232;2023-04-26T14:26:55;97255.31;;;23.85;21.43
62072;BME280;48031;48.542;13.232;2023-04-26T14:30:58;97260.13;;;22.93;22.33
62072;BME280;48031;48.542;13.232;2023-04-26T14:35:01;97254.09;;;22.91;20.82
62072;BME280;48031;48.542;13.232;2023-04-26T14:39:03;97254.81;;;22.42;21.87
62072;BME280;48031;48.542;13.232;2023-04-26T14:43:05;97256.13;;;22.06;23.38
62072;BME280;48031;48.542;13.232;2023-04-26T14:47:07;97240.22;;;22.32;23.56
62072;BME280;48031;48.542;13.232;2023-04-26T14:51:08;97244.25;;;22.44;22.52
62072;BME280;48031;48.542;13.232;2023-04-26T14:55:16;97243.06;;;23.12;23.46
62072;BME280;48031;48.542;13.232;2023-04-26T14:59:18;97251.28;;;21.51;23.46
62072;BME280;48031;48.542;13.232;2023-04-26T15:03:20;97244.16;;;21.50;24.51
62072;BME280;48031;48.542;13.232;2023-04-26T15:07:22;97232.72;;;21.95;24.25
62072;BME280;48031;48.542;13.232;2023-04-26T15:11:33;97237.28;;;21.74;23.66
62072;BME280;48031;48.542;13.232;2023-04-26T15:15:35;97222.22;;;22.85;25.84
62072;BME280;48031;48.542;13.232;2023-04-26T15:19:37;97219.59;;;22.59;25.13
62072;BME280;48031;48.542;13.232;2023-04-26T15:23:39;97226.22;;;22.67;23.50
62072;BME280;48031;48.542;13.232;2023-04-26T15:27:41;97217.84;;;22.84;22.68
62072;BME280;48031;48.542;13.232;2023-04-26T15:31:43;97223.31;;;22.93;23.09
62072;BME280;48031;48.542;13.232;2023-04-26T15:35:45;97217.34;;;22.53;22.28
62072;BME280;48031;48.542;13.232;2023-04-26T15:39:48;97226.97;;;22.85;21.61
62072;BME280;48031;48.542;13.232;2023-04-26T15:43:52;97221.09;;;23.28;22.53
62072;BME280;48031;48.542;13.232;2023-04-26T15:47:57;97219.47;;;22.18;22.20
62072;BME280;48031;48.542;13.232;2023-04-26T15:51:59;97230.75;;;22.42;22.97
62072;BME280;48031;48.542;13.232;2023-04-26T15:56:01;97231.44;;;21.84;24.92
62072;BME280;48031;48.542;13.232;2023-04-26T16:00:04;97232.91;;;21.04;25.16
62072;BME280;48031;48.542;13.232;2023-04-26T16:04:08;97241.72;;;21.32;25.09
62072;BME280;48031;48.542;13.232;2023-04-26T16:08:11;97240.28;;;21.17;24.50
62072;BME280;48031;48.542;13.232;2023-04-26T16:12:13;97235.69;;;20.95;25.03
62072;BME280;48031;48.542;13.232;2023-04-26T16:16:15;97243.63;;;21.05;25.25
62072;BME280;48031;48.542;13.232;2023-04-26T16:20:17;97240.66;;;20.76;25.39
62072;BME280;48031;48.542;13.232;2023-04-26T16:24:19;97235.88;;;20.42;25.62
62072;BME280;48031;48.542;13.232;2023-04-26T16:28:20;97230.72;;;20.58;25.25
62072;BME280;48031;48.542;13.232;2023-04-26T16:32:22;97221.38;;;21.71;24.51
62072;BME280;48031;48.542;13.232;2023-04-26T16:36:24;97203.53;;;22.15;23.11
62072;BME280;48031;48.542;13.232;2023-04-26T16:40:27;97218.56;;;21.88;24.10
62072;BME280;48031;48.542;13.232;2023-04-26T16:44:29;97231.59;;;20.93;24.71
62072;BME280;48031;48.542;13.232;2023-04-26T16:48:35;97224.06;;;20.59;25.04
62072;BME280;48031;48.542;13.232;2023-04-26T16:52:37;97231.22;;;19.59;25.69
62072;BME280;48031;48.542;13.232;2023-04-26T16:56:39;97230.06;;;19.15;26.52
62072;BME280;48031;48.542;13.232;2023-04-26T17:00:41;97244.72;;;18.88;27.29
62072;BME280;48031;48.542;13.232;2023-04-26T17:04:43;97233.44;;;18.76;27.51
62072;BME280;48031;48.542;13.232;2023-04-26T17:08:46;97243.63;;;18.62;28.03
62072;BME280;48031;48.542;13.232;2023-04-26T17:12:48;97241.88;;;18.80;27.80
62072;BME280;48031;48.542;13.232;2023-04-26T17:16:51;97240.84;;;19.11;27.82
62072;BME280;48031;48.542;13.232;2023-04-26T17:20:52;97242.94;;;19.28;27.71
62072;BME280;48031;48.542;13.232;2023-04-26T17:24:56;97243.97;;;18.96;28.18
62072;BME280;48031;48.542;13.232;2023-04-26T17:28:58;97245.03;;;18.73;29.46
62072;BME280;48031;48.542;13.232;2023-04-26T17:33:00;97249.00;;;18.67;29.61
62072;BME280;48031;48.542;13.232;2023-04-26T17:37:02;97259.38;;;17.88;29.87
62072;BME280;48031;48.542;13.232;2023-04-26T17:41:04;97260.34;;;17.78;30.27
62072;BME280;48031;48.542;13.232;2023-04-26T17:45:06;97268.72;;;17.87;31.08
62072;BME280;48031;48.542;13.232;2023-04-26T17:49:08;97266.44;;;17.75;31.49
62072;BME280;48031;48.542;13.232;2023-04-26T17:53:10;97270.94;;;17.71;32.06
62072;BME280;48031;48.542;13.232;2023-04-26T17:57:12;97274.25;;;17.68;32.74
62072;BME280;48031;48.542;13.232;2023-04-26T18:01:13;97276.88;;;17.41;31.66
62072;BME280;48031;48.542;13.232;2023-04-26T18:05:16;97276.28;;;17.44;31.65
62072;BME280;48031;48.542;13.232;2023-04-26T18:09:17;97286.81;;;17.37;32.35
62072;BME280;48031;48.542;13.232;2023-04-26T18:13:19;97284.84;;;17.05;32.58
62072;BME280;48031;48.542;13.232;2023-04-26T18:17:22;97289.13;;;16.92;33.60
62072;BME280;48031;48.542;13.232;2023-04-26T18:21:24;97293.25;;;16.90;31.89
62072;BME280;48031;48.542;13.232;2023-04-26T18:25:27;97304.78;;;16.68;32.36
62072;BME280;48031;48.542;13.232;2023-04-26T18:29:29;97285.97;;;16.61;33.38
62072;BME280;48031;48.542;13.232;2023-04-26T18:33:31;97303.75;;;16.40;33.48
62072;BME280;48031;48.542;13.232;2023-04-26T18:37:32;97301.66;;;16.32;33.46
62072;BME280;48031;48.542;13.232;2023-04-26T18:41:34;97316.16;;;16.33;32.84
62072;BME280;48031;48.542;13.232;2023-04-26T18:45:37;97310.03;;;16.41;32.89
62072;BME280;48031;48.542;13.232;2023-04-26T18:49:38;97310.50;;;16.24;33.37
62072;BME280;48031;48.542;13.232;2023-04-26T18:53:40;97326.13;;;15.95;34.62
62072;BME280;48031;48.542;13.232;2023-04-26T18:57:42;97328.44;;;15.83;33.85
62072;BME280;48031;48.542;13.232;2023-04-26T19:01:44;97331.84;;;15.69;35.01
62072;BME280;48031;48.542;13.232;2023-04-26T19:05:46;97329.63;;;15.71;34.49
62072;BME280;48031;48.542;13.232;2023-04-26T19:09:47;97333.38;;;15.42;35.24
62072;BME280;48031;48.542;13.232;2023-04-26T19:13:55;97333.16;;;15.33;33.86
62072;BME280;48031;48.542;13.232;2023-04-26T19:17:57;97338.72;;;15.18;35.48
62072;BME280;48031;48.542;13.232;2023-04-26T19:21:59;97337.03;;;15.27;35.74
62072;BME280;48031;48.542;13.232;2023-04-26T19:26:06;97334.78;;;15.34;35.26
62072;BME280;48031;48.542;13.232;2023-04-26T19:30:08;97338.00;;;15.46;34.74
62072;BME280;48031;48.542;13.232;2023-04-26T19:34:10;97348.09;;;15.07;34.73
62072;BME280;48031;48.542;13.232;2023-04-26T19:38:13;97341.50;;;15.13;35.17
62072;BME280;48031;48.542;13.232;2023-04-26T19:42:15;97342.28;;;14.69;36.12
62072;BME280;48031;48.542;13.232;2023-04-26T19:46:17;97340.47;;;15.04;36.07
62072;BME280;48031;48.542;13.232;2023-04-26T19:50:19;97349.75;;;14.48;37.47
62072;BME280;48031;48.542;13.232;2023-04-26T19:54:21;97352.47;;;14.38;40.02
62072;BME280;48031;48.542;13.232;2023-04-26T19:58:23;97354.63;;;14.51;40.46
62072;BME280;48031;48.542;13.232;2023-04-26T20:02:25;97357.09;;;14.48;40.41
62072;BME280;48031;48.542;13.232;2023-04-26T20:06:28;97342.34;;;14.44;41.13
62072;BME280;48031;48.542;13.232;2023-04-26T20:10:30;97347.84;;;14.39;40.03
62072;BME280;48031;48.542;13.232;2023-04-26T20:14:32;97355.50;;;14.22;39.71
62072;BME280;48031;48.542;13.232;2023-04-26T20:18:34;97356.06;;;14.19;39.57
62072;BME280;48031;48.542;13.232;2023-04-26T20:22:37;97357.91;;;14.33;39.75
62072;BME280;48031;48.542;13.232;2023-04-26T20:26:40;97367.56;;;13.80;41.17
62072;BME280;48031;48.542;13.232;2023-04-26T20:30:41;97369.47;;;13.64;41.44
62072;BME280;48031;48.542;13.232;2023-04-26T20:34:43;97371.38;;;13.74;40.05
62072;BME280;48031;48.542;13.232;2023-04-26T20:38:45;97369.19;;;13.66;40.74
62072;BME280;48031;48.542;13.232;2023-04-26T20:42:47;97368.09;;;13.67;40.72
62072;BME280;48031;48.542;13.232;2023-04-26T20:46:48;97374.38;;;13.52;41.67
62072;BME280;48031;48.542;13.232;2023-04-26T20:50:53;97373.84;;;13.76;41.86
62072;BME280;48031;48.542;13.232;2023-04-26T20:54:55;97383.91;;;13.50;41.79
62072;BME280;48031;48.542;13.232;2023-04-26T20:58:57;97382.00;;;13.40;41.86
62072;BME280;48031;48.542;13.232;2023-04-26T21:02:59;97385.78;;;13.29;41.97
62072;BME280;48031;48.542;13.232;2023-04-26T21:07:01;97390.13;;;13.20;42.23
62072;BME280;48031;48.542;13.232;2023-04-26T21:11:03;97391.44;;;13.07;42.98
62072;BME280;48031;48.542;13.232;2023-04-26T21:15:06;97388.97;;;13.11;43.22
62072;BME280;48031;48.542;13.232;2023-04-26T21:19:08;97393.28;;;12.86;43.42